createdAt,value
2024-05-09T00:04:56.124Z,6.20
2024-05-09T00:09:59.853Z,5.93
2024-05-09T00:15:03.389Z,5.47
2024-05-09T00:20:14.449Z,6.13
2024-05-09T00:25:23.849Z,6.45
2024-05-09T00:30:33.665Z,5.07
2024-05-09T00:35:40.351Z,5.95
2024-05-09T00:40:44.113Z,6.15
2024-05-09T00:45:49.112Z,5.65
2024-05-09T00:50:54.570Z,7.68
2024-05-09T00:55:59.248Z,8.85
2024-05-09T01:01:04.194Z,7.65
2024-05-09T01:06:07.890Z,7.32
2024-05-09T01:11:11.592Z,8.25
2024-05-09T01:16:17.494Z,7.22
2024-05-09T01:21:21.072Z,9.05
2024-05-09T01:26:25.971Z,6.68
2024-05-09T01:31:29.769Z,7.13
2024-05-09T01:36:35.156Z,8.80
2024-05-09T01:41:38.921Z,8.70
2024-05-09T01:46:42.466Z,7.35
2024-05-09T01:51:46.515Z,7.28
2024-05-09T01:56:50.159Z,8.32
2024-05-09T02:01:56.979Z,9.15
2024-05-09T02:07:01.344Z,8.75
2024-05-09T02:12:05.358Z,5.78
2024-05-09T02:17:09.164Z,6.25
2024-05-09T02:22:12.838Z,6.97
2024-05-09T02:27:16.471Z,6.95
2024-05-09T02:32:20.163Z,6.55
2024-05-09T02:37:23.843Z,9.50
2024-05-09T02:42:27.500Z,7.13
2024-05-09T02:47:31.193Z,8.05
2024-05-09T02:52:34.742Z,7.00
2024-05-09T02:57:38.203Z,5.78
2024-05-09T03:02:47.402Z,5.72
2024-05-09T03:07:51.192Z,11.32
2024-05-09T03:12:54.775Z,7.18
2024-05-09T03:17:58.827Z,8.80
2024-05-09T03:23:02.700Z,7.18
2024-05-09T03:28:06.922Z,7.15
2024-05-09T03:38:15.751Z,7.65
2024-05-09T03:43:20.312Z,7.38
2024-05-09T03:48:24.664Z,8.35
2024-05-09T03:53:28.665Z,7.70
2024-05-09T03:58:32.164Z,10.68
2024-05-09T04:03:35.908Z,8.20
2024-05-09T04:08:39.720Z,7.80
2024-05-09T04:13:43.940Z,7.65
2024-05-09T04:18:47.566Z,6.65
2024-05-09T04:28:54.164Z,7.35
2024-05-09T04:33:57.860Z,6.55
2024-05-09T04:39:01.697Z,5.07
2024-05-09T04:44:05.454Z,6.32
2024-05-09T04:49:08.916Z,5.65
2024-05-09T04:54:25.771Z,7.50
2024-05-09T04:59:33.953Z,5.90
2024-05-09T05:04:37.513Z,4.72
2024-05-09T05:09:40.918Z,4.50
2024-05-09T05:14:44.281Z,7.93
2024-05-09T05:19:48.335Z,4.68
2024-05-09T05:24:51.842Z,5.07
2024-05-09T05:29:55.157Z,5.00
2024-05-09T05:34:58.615Z,4.55
2024-05-09T05:40:02.491Z,5.10
2024-05-09T05:45:09.896Z,5.15
2024-05-09T05:50:23.776Z,7.95
2024-05-09T05:55:33.328Z,3.17
2024-05-09T06:00:39.226Z,3.20
2024-05-09T06:05:46.450Z,4.10
2024-05-09T06:10:50.476Z,5.72
2024-05-09T06:15:53.864Z,4.10
2024-05-09T06:20:57.271Z,6.22
2024-05-09T06:26:00.847Z,6.80
2024-05-09T06:31:04.392Z,3.95
2024-05-09T06:36:08.434Z,3.78
2024-05-09T06:41:12.093Z,4.82
2024-05-09T06:46:17.863Z,10.77
2024-05-09T06:51:21.771Z,5.88
2024-05-09T06:56:25.305Z,5.38
2024-05-09T07:01:28.713Z,6.70
2024-05-09T07:06:32.206Z,5.93
2024-05-09T07:11:35.572Z,6.85
2024-05-09T07:16:39.099Z,3.42
2024-05-09T07:26:45.985Z,5.30
2024-05-09T07:31:52.183Z,7.72
2024-05-09T07:36:56.058Z,5.35
2024-05-09T07:41:59.670Z,5.88
2024-05-09T07:48:14.168Z,7.05
2024-05-09T07:53:32.302Z,6.70
2024-05-09T07:57:50.066Z,7.72
2024-05-09T08:02:53.522Z,8.95
2024-05-09T08:08:06.336Z,4.45
2024-05-09T08:13:25.530Z,6.15
2024-05-09T08:18:29.290Z,6.47
2024-05-09T08:23:33.078Z,6.93
2024-05-09T08:28:36.452Z,5.68
2024-05-09T08:33:49.654Z,5.95
2024-05-09T08:38:53.333Z,6.90
2024-05-09T08:43:56.881Z,11.48
2024-05-09T08:49:06.025Z,7.55
2024-05-09T08:59:21.551Z,5.68
2024-05-09T09:04:25.873Z,8.52
2024-05-09T09:09:30.285Z,3.97
2024-05-09T09:14:36.495Z,7.43
2024-05-09T09:19:40.981Z,4.85
2024-05-09T09:24:44.891Z,10.77
2024-05-09T09:29:51.821Z,3.97
2024-05-09T09:34:55.330Z,9.70
2024-05-09T09:40:00.103Z,6.97
2024-05-09T09:45:05.689Z,7.15
2024-05-09T09:50:14.451Z,5.85
2024-05-09T09:55:22.576Z,9.90
2024-05-09T10:00:33.036Z,4.97
2024-05-09T10:05:44.052Z,6.07
2024-05-09T10:10:52.571Z,5.53
2024-05-09T10:15:56.251Z,4.78
2024-05-09T10:21:00.310Z,3.38
2024-05-09T10:26:07.035Z,4.68
2024-05-09T10:31:12.340Z,6.53
2024-05-09T10:36:20.249Z,5.95
2024-05-09T10:41:24.215Z,6.35
2024-05-09T10:46:27.876Z,7.72
2024-05-09T10:51:34.603Z,8.38
2024-05-09T10:56:38.197Z,11.52
2024-05-09T11:01:41.869Z,6.10
2024-05-09T11:06:47.291Z,5.00
2024-05-09T11:11:51.151Z,7.10
2024-05-09T11:22:04.803Z,7.45
2024-05-09T11:27:08.286Z,5.30
2024-05-09T11:32:14.383Z,4.38
2024-05-09T11:37:18.195Z,5.13
2024-05-09T11:42:23.074Z,3.95
2024-05-09T11:47:27.063Z,5.25
2024-05-09T11:52:30.619Z,4.25
2024-05-09T11:57:34.252Z,4.82
2024-05-09T12:02:37.960Z,4.63
2024-05-09T12:07:43.943Z,6.10
2024-05-09T12:12:47.492Z,4.65
2024-05-09T12:27:57.966Z,4.03
2024-05-09T12:33:01.658Z,3.03
2024-05-09T12:38:05.558Z,5.25
2024-05-09T12:43:10.283Z,4.80
2024-05-09T12:48:15.214Z,5.13
2024-05-09T12:53:19.166Z,3.88
2024-05-09T12:58:22.959Z,2.55
2024-05-09T13:03:26.533Z,4.60
2024-05-09T13:08:30.168Z,2.67
2024-05-09T13:13:33.641Z,4.93
2024-05-09T13:18:37.402Z,3.67
2024-05-09T13:23:41.123Z,5.50
2024-05-09T13:28:44.705Z,2.42
2024-05-09T13:33:48.708Z,3.47
2024-05-09T13:38:52.690Z,2.95
2024-05-09T13:43:56.131Z,3.53
2024-05-09T13:48:59.820Z,4.38
2024-05-09T13:54:03.613Z,3.35
2024-05-09T13:59:07.745Z,3.33
2024-05-09T14:04:14.288Z,3.78
2024-05-09T14:09:18.049Z,4.40
2024-05-09T14:14:21.580Z,5.43
2024-05-09T14:19:25.279Z,2.35
2024-05-09T14:24:28.891Z,1.65
2024-05-09T14:29:35.774Z,2.80
2024-05-09T14:34:39.509Z,3.22
2024-05-09T14:39:46.078Z,1.52
2024-05-09T14:44:49.556Z,2.10
2024-05-09T14:49:53.354Z,2.20
2024-05-09T14:55:00.356Z,2.72
2024-05-09T15:00:09.113Z,2.03
2024-05-09T15:05:17.849Z,7.38
2024-05-09T15:10:27.531Z,2.10
2024-05-09T15:15:38.113Z,2.22
2024-05-09T15:20:43.758Z,2.70
2024-05-09T15:25:47.432Z,4.90
2024-05-09T15:30:52.191Z,1.65
2024-05-09T15:35:56.496Z,5.57
2024-05-09T15:41:00.353Z,1.88
2024-05-09T15:46:04.159Z,3.85
2024-05-09T15:51:08.377Z,7.88
2024-05-09T15:56:12.424Z,3.38
2024-05-09T16:01:16.107Z,4.95
2024-05-09T16:06:19.868Z,5.07
2024-05-09T16:11:24.110Z,4.13
2024-05-09T16:16:28.079Z,6.63
2024-05-09T16:21:31.819Z,7.53
2024-05-09T16:26:35.616Z,6.15
2024-05-09T16:31:39.223Z,8.95
2024-05-09T16:36:44.349Z,6.30
2024-05-09T16:41:48.551Z,7.25
2024-05-09T16:46:52.169Z,10.98
2024-05-09T16:51:56.139Z,10.15
2024-05-09T16:57:00.038Z,7.32
2024-05-09T17:02:04.078Z,7.88
2024-05-09T17:07:07.916Z,11.85
2024-05-09T17:12:11.734Z,9.85
2024-05-09T17:17:15.897Z,8.48
2024-05-09T17:22:20.724Z,7.25
2024-05-09T17:27:43.063Z,8.40
2024-05-09T17:32:46.802Z,9.18
2024-05-09T17:37:50.613Z,7.75
2024-05-09T17:42:55.294Z,7.07
2024-05-09T17:47:59.446Z,9.95
2024-05-09T17:53:03.447Z,7.10
2024-05-09T17:58:07.305Z,5.97
2024-05-09T18:03:12.655Z,5.75
2024-05-09T18:08:17.139Z,8.68
2024-05-09T18:13:20.692Z,7.75
2024-05-09T18:18:24.437Z,6.13
2024-05-09T18:23:28.127Z,8.95
2024-05-09T18:28:50.892Z,6.15
2024-05-09T18:33:54.870Z,6.10
2024-05-09T18:38:58.635Z,7.32
2024-05-09T18:44:02.442Z,5.43
2024-05-09T18:49:06.626Z,4.75
2024-05-09T18:54:10.414Z,7.47
2024-05-09T18:59:14.213Z,6.60
2024-05-09T19:04:19.248Z,7.07
2024-05-09T19:09:23.141Z,6.15
2024-05-09T19:14:26.870Z,4.65
2024-05-09T19:19:30.543Z,5.28
2024-05-09T19:24:34.497Z,4.25
2024-05-09T19:29:38.135Z,5.68
2024-05-09T19:34:41.718Z,5.32
2024-05-09T19:44:48.987Z,6.25
2024-05-09T19:49:52.631Z,6.30
2024-05-09T19:54:56.283Z,4.82
2024-05-09T19:59:59.961Z,7.57
2024-05-09T20:05:04.197Z,6.40
2024-05-09T20:10:16.463Z,7.28
2024-05-09T20:15:24.302Z,7.45
2024-05-09T20:20:35.952Z,6.05
2024-05-09T20:25:43.686Z,5.20
2024-05-09T20:30:47.622Z,6.35
2024-05-09T20:35:52.636Z,14.48
2024-05-09T20:40:57.432Z,5.13
2024-05-09T20:46:01.678Z,7.43
2024-05-09T20:51:05.506Z,9.15
2024-05-09T20:56:09.357Z,7.70
2024-05-09T21:01:13.045Z,8.88
2024-05-09T21:06:16.936Z,8.70
2024-05-09T21:11:23.331Z,6.22
2024-05-09T21:16:27.227Z,7.03
2024-05-09T21:21:30.935Z,6.97
2024-05-09T21:26:34.852Z,7.97
2024-05-09T21:31:41.344Z,8.55
2024-05-09T21:36:46.638Z,7.47
2024-05-09T21:41:50.356Z,8.75
2024-05-09T21:46:54.528Z,8.77
2024-05-09T21:51:58.154Z,9.27
2024-05-09T21:57:01.654Z,6.78
2024-05-09T22:02:05.548Z,6.05
2024-05-09T22:07:09.731Z,9.75
2024-05-09T22:12:16.064Z,7.80
2024-05-09T22:17:20.028Z,9.27
2024-05-09T22:22:23.794Z,11.68
2024-05-09T22:27:27.334Z,13.52
2024-05-09T22:32:31.157Z,10.20
2024-05-09T22:37:35.231Z,13.25
2024-05-09T22:42:43.671Z,10.00
2024-05-09T22:47:47.448Z,9.88
2024-05-09T22:52:51.016Z,13.02
2024-05-09T22:57:54.669Z,12.27
2024-05-09T23:02:58.712Z,9.88
2024-05-09T23:08:03.298Z,12.10
2024-05-09T23:13:08.263Z,10.85
2024-05-09T23:18:14.564Z,12.88
2024-05-09T23:23:18.433Z,14.73
2024-05-09T23:28:22.318Z,11.40
2024-05-09T23:33:27.056Z,10.30
2024-05-09T23:38:30.651Z,12.82
2024-05-09T23:43:36.800Z,8.60
2024-05-09T23:48:40.462Z,13.93
2024-05-09T23:53:47.444Z,12.48
2024-05-09T23:58:51.080Z,13.68
